Track Малышев Владислав

Time Latitude Longitude Accuracy (66% radius in meters) Altitude (meters) Speed (km/hour) Bearing (degrees) Battery (%) GPS flag
10:49:08 51.810812 39.391201 6 113.25324062369 0 148.0074005127 65 1 delete
10:48:56 51.810812 39.391201 6 113.26096494753 0 148.0074005127 65 1 delete
10:48:41 51.810812 39.391201 6 113.18510546336 0 148.0074005127 65 1 delete
10:48:23 51.810812 39.391201 4 113.1639537684 0 148.0074005127 65 1 delete
10:48:11 51.810812 39.391201 6 113.13287606907 0 148.0074005127 65 1 delete
10:47:59 51.810812 39.391201 8 113.19083084156 0 148.0074005127 65 1 delete
10:47:50 51.810812 39.391201 12 113.28727418984 0 148.0074005127 65 1 delete
10:47:38 51.810812 39.391201 8 113.2520864535 0 148.0074005127 65 1 delete
10:47:26 51.810812 39.391201 8 113.15586691454 0 148.0074005127 65 1 delete
10:47:11 51.810812 39.391201 6 113.07059878387 0 148.0074005127 65 1 delete
10:46:59 51.810812 39.391201 6 113.05613725123 0 148.0074005127 65 1 delete
10:46:47 51.810812 39.391201 16 113.10189189728 0 148.0074005127 65 1 delete
10:46:35 51.810812 39.391201 8 113.16891514237 0 148.0074005127 65 1 delete
10:46:26 51.810812 39.391201 16 113.17940080249 0 148.0074005127 65 1 delete
10:46:14 51.810812 39.391201 12 113.21384896885 0 148.0074005127 65 1 delete
10:46:02 51.810812 39.391201 8 113.11099979954 0 148.0074005127 65 1 delete
10:45:50 51.810812 39.391201 12 112.99911901449 0 148.0074005127 65 1 delete
10:45:38 51.810812 39.391201 12 113.12121294605 0 148.0074005127 65 1 delete
10:45:26 51.810812 39.391201 8 113.23259773048 0 148.0074005127 65 1 delete
10:45:14 51.810812 39.391201 8 113.32349505435 0 148.0074005127 65 1 delete
10:45:02 51.810812 39.391201 8 113.39654834467 0 148.0074005127 65 1 delete
10:44:50 51.810812 39.391201 8 113.49812945776 0 148.0074005127 65 1 delete
10:44:41 51.810812 39.391201 8 113.52972552238 0 148.0074005127 65 1 delete
10:44:29 51.810812 39.391201 8 113.52128556438 0 148.0074005127 65 1 delete
10:44:17 51.810812 39.391201 8 113.54891266693 0 148.0074005127 65 1 delete
10:44:05 51.810812 39.391201 6 113.64858961407 0 148.0074005127 67 1 delete
10:43:53 51.810812 39.391201 8 113.74607298757 0 148.0074005127 67 1 delete
10:43:41 51.810812 39.391201 12 113.8750366484 0 148.0074005127 67 1 delete
10:43:32 51.810812 39.391201 8 113.95386566424 0 148.0074005127 67 1 delete
10:43:20 51.810812 39.391201 6 114.08459103947 0 148.0074005127 67 1 delete
10:43:08 51.810812 39.391201 12 114.13799777483 0 148.0074005127 67 1 delete
10:42:56 51.810812 39.391201 4 114.22038492915 0 148.0074005127 67 1 delete
10:42:44 51.810812 39.391201 8 114.30791231061 0 148.0074005127 67 1 delete
10:42:29 51.810812 39.391201 6 114.19835369214 0 148.0074005127 67 1 delete
10:42:17 51.810812 39.391201 6 114.07649163295 0 148.0074005127 67 1 delete
10:42:05 51.810812 39.391201 6 114.07611090994 0 148.0074005127 67 1 delete
10:41:53 51.810812 39.391201 6 114.15586779185 0 148.0074005127 67 1 delete
10:41:41 51.810812 39.391201 8 114.12703389733 0 148.0074005127 67 1 delete
10:41:29 51.810812 39.391201 12 114.04949486205 0 148.0074005127 67 1 delete
10:41:17 51.810812 39.391201 8 113.95209051637 0 148.0074005127 67 1 delete
10:41:05 51.810812 39.391201 8 113.91186213972 0 148.0074005127 67 1 delete
10:40:53 51.810812 39.391201 8 113.93198867993 0 148.0074005127 67 1 delete
10:40:41 51.810812 39.391201 8 114.00094814335 0 148.0074005127 67 1 delete
10:40:29 51.810812 39.391201 6 114.07838658764 0 148.0074005127 67 1 delete
10:40:17 51.810812 39.391201 6 114.13685895639 0 148.0074005127 67 1 delete
10:40:05 51.810812 39.391201 8 114.17783483041 0 148.0074005127 67 1 delete
10:39:56 51.810812 39.391201 6 114.20066369654 0 148.0074005127 67 1 delete
10:39:44 51.810812 39.391201 8 114.2272414006 0 148.0074005127 67 1 delete
10:39:29 51.810812 39.391201 6 114.28263161171 0 148.0074005127 67 1 delete
10:39:17 51.810812 39.391201 6 114.28832192079 0 148.0074005127 67 1 delete